Time;durP1;ratioP1;P1;durP2;ratioP2;P2;SDS_P1;SDS_P2;PMS_P1;PMS_P2;Temp;Humidity;BMP_temperature;BMP_pressure;BME280_temperature;BME280_humidity;BME280_pressure;Samples;Min_cycle;Max_cycle;Signal;HPM_P1;HPM_P2
2022/01/24 00:00:23;;;;;;;50.97;34.65;;;;;;;5.33;76.26;103384.81;5052516;28;20105;-67
2022/01/24 00:02:49;;;;;;;52.63;35.97;;;;;;;5.26;76.80;103385.69;5072386;28;20044;-68
2022/01/24 00:05:17;;;;;;;54.33;38.33;;;;;;;5.28;76.76;103379.53;5073580;28;20472;-67
2022/01/24 00:07:42;;;;;;;54.05;38.83;;;;;;;5.26;75.77;103390.97;5073514;28;20060;-67
2022/01/24 00:10:17;;;;;;;51.80;35.63;;;;;;;5.24;75.12;103380.44;5083394;28;20024;-67
2022/01/24 00:15:51;;;;;;;51.65;35.78;;;;;;;5.24;75.05;103381.31;5073797;28;20028;-68
2022/01/24 00:18:24;;;;;;;50.33;36.75;;;;;;;5.18;75.32;103389.22;5073623;28;20055;-67
2022/01/24 00:29:04;;;;;;;40.13;27.45;;;;;;;5.20;73.10;103383.94;5080999;28;20090;-67
2022/01/24 00:31:30;;;;;;;40.38;29.63;;;;;;;5.20;73.12;103381.28;5055453;28;20028;-67
2022/01/24 00:33:55;;;;;;;41.65;29.98;;;;;;;5.16;72.63;103375.13;5072670;28;20067;-67
2022/01/24 00:36:21;;;;;;;43.05;30.05;;;;;;;5.17;73.10;103378.66;5073399;28;20028;-67
2022/01/24 00:38:46;;;;;;;42.60;30.17;;;;;;;5.15;72.60;103375.16;5072614;28;20031;-67
2022/01/24 00:41:15;;;;;;;42.83;31.27;;;;;;;5.14;73.49;103366.34;5072065;28;20486;-67
2022/01/24 00:44:11;;;;;;;39.85;29.20;;;;;;;5.16;73.04;103363.72;5072254;28;20025;-67
2022/01/24 00:46:45;;;;;;;39.67;29.45;;;;;;;5.15;73.71;103361.97;5070874;28;20078;-67
2022/01/24 00:52:58;;;;;;;43.85;30.52;;;;;;;5.14;72.85;103363.69;5073016;28;20033;-67
2022/01/24 00:54:43;;;;;;;43.75;31.27;;;;;;;5.17;73.34;103362.81;5070964;28;20851;-67
2022/01/24 00:57:10;;;;;;;45.58;30.08;;;;;;;5.22;73.19;103377.78;5071387;28;20036;-67
2022/01/24 00:59:36;;;;;;;44.40;29.50;;;;;;;5.20;73.72;103368.09;5072866;28;20020;-67
2022/01/24 01:02:03;;;;;;;43.08;31.10;;;;;;;5.24;73.35;103380.44;5072249;28;20369;-67
2022/01/24 01:04:39;;;;;;;45.00;30.70;;;;;;;5.27;74.55;103369.88;5072052;28;20031;-68
2022/01/24 01:07:07;;;;;;;41.83;30.05;;;;;;;5.29;73.31;103376.00;5072108;28;20021;-67
2022/01/24 01:20:46;;;;;;;40.78;28.02;;;;;;;5.16;72.35;103355.81;5071437;28;20110;-67
2022/01/24 01:23:13;;;;;;;43.38;28.90;;;;;;;5.13;72.19;103345.25;5070664;28;20093;-68
2022/01/24 01:25:43;;;;;;;41.15;29.75;;;;;;;5.17;72.40;103362.81;5083677;28;20070;-67
2022/01/24 01:28:09;;;;;;;43.35;30.05;;;;;;;5.17;72.85;103365.47;5082323;28;20051;-67
2022/01/24 01:30:41;;;;;;;41.47;29.58;;;;;;;5.16;72.44;103359.31;5071214;28;20028;-67
2022/01/24 01:33:15;;;;;;;42.03;29.23;;;;;;;5.12;72.67;103356.69;5070892;28;20108;-67
2022/01/24 01:36:08;;;;;;;39.63;29.45;;;;;;;5.10;72.75;103355.81;5070673;28;20119;-67
2022/01/24 01:52:57;;;;;;;40.22;28.48;;;;;;;5.07;73.22;103369.00;5070945;28;20045;-67
2022/01/24 01:58:20;;;;;;;39.13;27.35;;;;;;;5.01;71.96;103368.09;5065635;28;20524;-67
2022/01/24 02:00:53;;;;;;;41.78;28.38;;;;;;;5.09;73.04;103367.22;5070059;28;20090;-67
2022/01/24 02:03:19;;;;;;;37.90;28.13;;;;;;;5.01;72.79;103359.31;5070477;28;20030;-67
2022/01/24 02:05:44;;;;;;;37.25;27.30;;;;;;;5.03;73.56;103369.84;5068956;28;20059;-67
2022/01/24 02:08:11;;;;;;;38.80;27.98;;;;;;;5.00;72.90;103362.84;5032021;28;1100600;-67
2022/01/24 02:10:38;;;;;;;40.97;29.23;;;;;;;5.05;73.18;103355.78;5071204;28;20024;-68
2022/01/24 02:13:04;;;;;;;37.63;28.13;;;;;;;5.06;74.39;103365.47;5071168;28;20021;-67
2022/01/24 02:18:54;;;;;;;35.85;27.38;;;;;;;5.07;73.23;103351.41;5070422;28;20032;-67
2022/01/24 02:23:59;;;;;;;40.25;27.50;;;;;;;5.10;73.31;103347.88;5053461;28;20032;-67
2022/01/24 02:26:25;;;;;;;42.05;28.70;;;;;;;5.10;73.34;103339.97;5071605;28;20045;-68
2022/01/24 02:29:02;;;;;;;38.15;27.85;;;;;;;5.05;73.15;103342.59;5070348;28;20549;-67
2022/01/24 02:34:39;;;;;;;36.33;27.10;;;;;;;5.12;73.56;103340.88;5080135;28;20443;-67
2022/01/24 02:37:07;;;;;;;37.83;27.88;;;;;;;5.05;72.98;103347.00;5073422;28;20025;-68
2022/01/24 02:53:17;;;;;;;40.85;29.02;;;;;;;4.95;73.13;103340.84;5070460;28;20032;-67
2022/01/24 02:55:44;;;;;;;39.60;28.73;;;;;;;4.96;73.63;103325.00;5070328;28;20024;-67
2022/01/24 02:58:11;;;;;;;39.13;29.45;;;;;;;4.97;74.62;103336.44;5070389;28;20430;-67
2022/01/24 03:00:38;;;;;;;39.22;27.98;;;;;;;5.00;73.85;103336.47;5070135;28;20024;-67
2022/01/24 03:03:05;;;;;;;41.42;28.80;;;;;;;4.96;72.52;103342.59;5067394;28;20063;-67
2022/01/24 03:05:32;;;;;;;36.97;28.67;;;;;;;4.94;73.01;103332.06;5070427;28;20032;-67
2022/01/24 03:07:58;;;;;;;38.40;27.73;;;;;;;5.01;72.25;103332.94;5070140;28;20471;-67
2022/01/24 03:10:27;;;;;;;38.47;27.60;;;;;;;4.93;73.08;103317.09;5070131;28;20036;-67
2022/01/24 03:13:20;;;;;;;40.10;27.80;;;;;;;4.97;71.71;103320.63;5070477;28;20028;-67
2022/01/24 03:15:48;;;;;;;40.33;29.75;;;;;;;4.98;72.91;103327.66;5068957;28;20032;-67
2022/01/24 03:18:17;;;;;;;40.55;28.88;;;;;;;4.92;72.57;103325.91;5070110;28;20025;-67
2022/01/24 03:20:46;;;;;;;40.63;30.17;;;;;;;4.87;72.13;103324.13;5070522;28;20021;-67
2022/01/24 03:23:13;;;;;;;41.20;29.92;;;;;;;4.92;72.08;103328.53;5052113;28;20111;-67
2022/01/24 03:25:39;;;;;;;39.85;28.63;;;;;;;4.91;72.63;103321.53;5070319;28;20024;-67
2022/01/24 03:28:05;;;;;;;40.95;28.52;;;;;;;4.89;72.04;103315.34;5070057;28;20048;-67
2022/01/24 03:30:32;;;;;;;43.28;30.98;;;;;;;4.86;72.85;103310.09;5070259;28;20028;-68
2022/01/24 03:32:58;;;;;;;44.35;29.85;;;;;;;4.90;72.67;103311.81;5069614;28;20032;-67
2022/01/24 03:35:24;;;;;;;38.05;28.58;;;;;;;4.88;73.73;103316.25;5070398;28;20028;-67
2022/01/24 03:37:50;;;;;;;45.10;30.70;;;;;;;4.84;71.71;103316.22;5070480;28;20039;-67
2022/01/24 03:40:15;;;;;;;40.50;31.38;;;;;;;4.81;72.39;103314.47;5069110;28;20485;-67
2022/01/24 03:42:43;;;;;;;42.10;31.15;;;;;;;4.78;72.95;103302.16;5069771;28;20036;-67
2022/01/24 03:45:10;;;;;;;39.30;29.55;;;;;;;4.83;74.39;103310.09;5068869;28;20037;-67
2022/01/24 03:50:03;;;;;;;46.90;31.70;;;;;;;4.81;73.63;103318.88;5087994;28;20027;-67
2022/01/24 03:52:30;;;;;;;40.67;31.60;;;;;;;4.83;74.12;103315.34;5077921;28;20103;-66
2022/01/24 03:54:57;;;;;;;40.78;29.50;;;;;;;4.82;73.27;103304.78;5051313;28;20044;-68
2022/01/24 03:57:26;;;;;;;41.85;29.60;;;;;;;4.80;74.36;103322.38;5070341;28;20541;-67
2022/01/24 03:59:54;;;;;;;41.63;29.98;;;;;;;4.82;72.86;103321.47;5069851;28;20033;-67
2022/01/24 04:02:24;;;;;;;41.40;29.20;;;;;;;4.86;73.49;103311.84;5069553;28;20035;-67
2022/01/24 04:04:50;;;;;;;43.42;29.90;;;;;;;4.81;73.31;103324.13;5069323;28;20039;-67
2022/01/24 04:07:16;;;;;;;39.22;30.17;;;;;;;4.79;73.38;103326.75;5069609;28;20024;-66
2022/01/24 04:09:43;;;;;;;40.65;28.90;;;;;;;4.86;73.79;103312.72;5067824;28;20060;-67
2022/01/24 04:12:11;;;;;;;43.15;31.33;;;;;;;4.83;75.92;103319.75;5069610;28;20029;-67
2022/01/24 04:14:54;;;;;;;42.20;31.08;;;;;;;4.82;74.52;103316.22;5068067;28;20013;-67
2022/01/24 04:17:23;;;;;;;42.33;30.38;;;;;;;4.84;72.86;103316.22;5069956;28;20048;-67
2022/01/24 04:22:19;;;;;;;37.17;28.48;;;;;;;4.77;71.88;103318.88;5069874;28;20031;-68
2022/01/24 04:24:47;;;;;;;39.42;29.40;;;;;;;4.76;71.79;103317.13;5067880;28;20414;-67
2022/01/24 04:27:13;;;;;;;42.13;29.60;;;;;;;4.78;72.26;103301.28;5068542;28;20027;-67
2022/01/24 04:29:42;;;;;;;40.42;29.27;;;;;;;4.70;72.66;103306.53;5069216;28;20020;-67
2022/01/24 04:32:09;;;;;;;42.17;30.25;;;;;;;4.76;72.81;103308.31;5069793;28;20828;-67
2022/01/24 04:34:34;;;;;;;37.25;28.27;;;;;;;4.75;72.64;103319.72;5069272;28;20028;-66
2022/01/24 04:37:01;;;;;;;39.88;29.30;;;;;;;4.74;72.00;103313.59;5069496;28;20085;-67
2022/01/24 04:39:27;;;;;;;36.85;28.85;;;;;;;4.73;75.02;103318.84;5069287;28;20456;-67
2022/01/24 04:41:55;;;;;;;40.78;28.58;;;;;;;4.78;75.60;103325.00;5069769;28;20036;-67
2022/01/24 04:52:37;;;;;;;42.20;31.13;;;;;;;4.67;74.96;103322.34;5073505;28;20047;-67
2022/01/24 04:55:03;;;;;;;37.13;28.27;;;;;;;4.65;73.41;103326.75;5073092;28;20033;-67
2022/01/24 04:57:29;;;;;;;39.42;28.13;;;;;;;4.63;72.80;103325.00;5073274;28;20095;-67
2022/01/24 04:59:59;;;;;;;39.15;27.85;;;;;;;4.65;73.66;103328.53;5071481;28;20033;-67
2022/01/24 05:02:25;;;;;;;37.67;28.02;;;;;;;4.65;72.93;103331.16;5072429;28;20050;-68
2022/01/24 05:04:52;;;;;;;35.03;26.58;;;;;;;4.63;73.04;103325.88;5073435;28;20027;-67
2022/01/24 05:07:18;;;;;;;38.10;28.42;;;;;;;4.65;73.84;103324.13;5073225;28;20035;-67
2022/01/24 05:10:04;;;;;;;44.40;28.48;;;;;;;4.70;72.56;103329.38;5072340;28;20053;-67
2022/01/24 05:25:52;;;;;;;40.40;27.50;;;;;;;4.62;73.14;103331.13;5054344;28;20036;-67
2022/01/24 05:28:18;;;;;;;36.08;27.65;;;;;;;4.56;74.25;103318.84;5072458;28;20024;-67
2022/01/24 05:30:44;;;;;;;40.45;26.33;;;;;;;4.56;75.44;103326.75;5072144;28;20517;-67
2022/01/24 05:33:10;;;;;;;36.50;26.88;;;;;;;4.52;73.49;103319.69;5070283;28;20186;-67
2022/01/24 05:35:36;;;;;;;37.92;27.90;;;;;;;4.52;73.72;103320.56;5072568;28;20017;-67
2022/01/24 05:38:01;;;;;;;37.60;28.60;;;;;;;4.50;72.85;103314.44;5071610;28;20034;-68
2022/01/24 05:40:29;;;;;;;35.65;27.85;;;;;;;4.50;72.50;103310.91;5071713;28;20486;-67
2022/01/24 05:42:55;;;;;;;35.28;26.33;;;;;;;4.49;72.87;103310.03;5071515;28;20120;-67
2022/01/24 05:45:24;;;;;;;38.13;28.50;;;;;;;4.49;72.62;103312.66;5072148;28;20115;-67
2022/01/24 05:47:49;;;;;;;38.83;27.95;;;;;;;4.45;74.07;103317.94;5074175;28;20028;-67
2022/01/24 05:50:15;;;;;;;38.70;28.60;;;;;;;4.48;73.74;103317.94;5091322;28;20020;-67
2022/01/24 05:52:40;;;;;;;40.63;28.60;;;;;;;4.54;72.85;103312.69;5071343;28;20028;-67
2022/01/24 05:55:06;;;;;;;36.50;26.83;;;;;;;4.49;73.56;103324.97;5071049;28;20029;-67
2022/01/24 05:57:36;;;;;;;38.15;28.00;;;;;;;4.52;73.47;103323.19;5070389;28;20119;-67
2022/01/24 06:00:03;;;;;;;37.97;27.38;;;;;;;4.63;73.03;103331.13;5070438;28;20025;-67
2022/01/24 06:02:28;;;;;;;43.65;28.80;;;;;;;4.62;74.19;103324.13;5070485;28;20059;-68
2022/01/24 06:04:56;;;;;;;40.63;28.60;;;;;;;4.60;73.50;103331.13;5071346;28;20045;-67
2022/01/24 06:07:22;;;;;;;35.97;26.77;;;;;;;4.59;75.35;103325.84;5070886;28;20035;-67
2022/01/24 06:09:47;;;;;;;38.33;26.92;;;;;;;4.57;74.08;103327.63;5070811;28;20422;-67
2022/01/24 06:12:15;;;;;;;38.25;27.42;;;;;;;4.55;72.67;103327.59;5070775;28;21179;-67
2022/01/24 06:14:41;;;;;;;38.28;27.08;;;;;;;4.53;73.14;103318.84;5069960;28;20033;-67
2022/01/24 06:17:06;;;;;;;38.83;28.13;;;;;;;4.45;73.25;103312.66;5069778;28;20035;-67
2022/01/24 06:19:31;;;;;;;36.75;26.95;;;;;;;4.44;73.34;103314.44;5070528;28;20040;-67
2022/01/24 06:21:57;;;;;;;40.40;26.98;;;;;;;4.39;73.56;103326.69;5069863;28;20128;-67
2022/01/24 06:24:27;;;;;;;37.45;26.90;;;;;;;4.39;73.18;103320.56;5070737;28;20458;-67
2022/01/24 06:26:52;;;;;;;;;;;;;;;4.50;74.11;103326.69;5070189;28;20066;-67
2022/01/24 06:29:18;;;;;;;36.78;26.20;;;;;;;4.38;72.72;103322.28;5071191;28;19961;-67
2022/01/24 06:31:44;;;;;;;32.45;25.10;;;;;;;4.35;73.23;103321.41;5069703;28;20056;-67
2022/01/24 06:34:09;;;;;;;37.15;26.83;;;;;;;4.38;73.59;103326.69;5071135;28;20029;-67
2022/01/24 06:36:35;;;;;;;37.30;25.88;;;;;;;4.38;73.67;103324.03;5069449;28;20033;-67
2022/01/24 06:39:01;;;;;;;36.65;25.27;;;;;;;4.40;73.42;103330.22;5085294;28;20035;-66
2022/01/24 06:41:32;;;;;;;36.75;25.13;;;;;;;4.41;74.11;103327.59;5070604;28;20024;-67
2022/01/24 06:43:58;;;;;;;37.38;25.33;;;;;;;4.41;73.50;103318.78;5070893;28;20464;-67
2022/01/24 06:46:24;;;;;;;37.95;25.50;;;;;;;4.44;73.77;103326.69;5071034;28;20082;-67
2022/01/24 06:48:49;;;;;;;33.85;24.98;;;;;;;4.38;74.39;103321.41;5070958;28;20032;-67
2022/01/24 06:51:20;;;;;;;37.42;25.67;;;;;;;4.38;73.98;103326.69;5070323;28;21801;-67
2022/01/24 06:53:47;;;;;;;35.13;24.73;;;;;;;4.36;74.00;103326.69;5070655;28;20020;-67
2022/01/24 06:56:13;;;;;;;38.78;26.30;;;;;;;4.42;74.49;103334.59;5052465;28;20035;-67
2022/01/24 06:58:39;;;;;;;35.20;26.13;;;;;;;4.38;73.77;103334.59;5070444;28;20411;-67
2022/01/24 07:01:07;;;;;;;38.42;25.45;;;;;;;4.33;73.16;103335.47;5070193;28;20088;-67
2022/01/24 07:03:32;;;;;;;37.75;26.95;;;;;;;4.33;74.05;103334.59;5069727;28;20046;-67
2022/01/24 07:05:58;;;;;;;36.80;25.58;;;;;;;4.33;74.03;103335.47;5070565;28;20115;-67
2022/01/24 07:08:24;;;;;;;34.95;25.80;;;;;;;4.29;73.49;103341.59;5069042;28;20049;-68
2022/01/24 07:10:50;;;;;;;35.40;23.40;;;;;;;4.23;73.47;103343.31;5067412;28;20037;-67
2022/01/24 07:13:16;;;;;;;34.83;24.05;;;;;;;4.19;74.12;103346.81;5068514;28;20048;-67
2022/01/24 07:15:50;;;;;;;38.05;24.95;;;;;;;4.14;74.04;103338.88;5070500;28;20036;-67
2022/01/24 07:18:57;;;;;;;37.08;25.33;;;;;;;4.16;74.39;103333.66;5052492;28;20067;-67
2022/01/24 07:21:04;;;;;;;39.72;25.33;;;;;;;4.09;75.18;103341.53;5070822;28;20037;-67
2022/01/24 07:23:30;;;;;;;36.38;26.10;;;;;;;4.13;74.07;103337.13;5068429;28;20040;-67
2022/01/24 07:25:56;;;;;;;35.13;25.48;;;;;;;4.14;74.64;103349.44;5070679;28;20085;-67
2022/01/24 07:28:22;;;;;;;36.85;25.55;;;;;;;4.13;75.39;103355.56;5068890;28;20487;-67
2022/01/24 07:30:47;;;;;;;37.30;25.92;;;;;;;4.19;75.80;103355.59;5069428;28;20028;-67
2022/01/24 07:33:16;;;;;;;37.60;25.73;;;;;;;4.18;74.79;103345.94;5052385;28;20032;-67
2022/01/24 07:35:43;;;;;;;35.53;25.63;;;;;;;4.14;74.08;103346.78;5070771;28;20044;-67
2022/01/24 07:38:09;;;;;;;37.25;24.98;;;;;;;4.18;75.20;103353.84;5070393;28;20392;-67
2022/01/24 07:40:41;;;;;;;37.30;25.83;;;;;;;4.14;73.88;103340.66;5068669;28;20020;-67
2022/01/24 07:43:13;;;;;;;39.70;25.92;;;;;;;4.16;74.90;103362.63;5070535;28;20024;-66
2022/01/24 07:45:41;;;;;;;38.78;26.77;;;;;;;4.18;74.53;103347.72;5068468;28;20387;-67
2022/01/24 07:48:06;;;;;;;47.22;26.67;;;;;;;4.15;74.09;103350.31;5068301;28;20029;-67
2022/01/24 07:50:35;;;;;;;39.33;26.02;;;;;;;4.13;73.55;103355.56;5070147;28;20035;-68
2022/01/24 07:53:01;;;;;;;36.30;25.30;;;;;;;4.08;74.03;103339.75;5069876;28;20103;-68
2022/01/24 07:55:27;;;;;;;36.97;25.45;;;;;;;4.14;74.58;103353.81;5067653;28;20032;-68
2022/01/24 07:57:52;;;;;;;37.10;26.58;;;;;;;4.17;74.21;103365.25;5070094;28;20429;-68
2022/01/24 08:00:19;;;;;;;39.40;26.80;;;;;;;4.16;73.84;103362.63;5092111;28;20029;-68
2022/01/24 08:02:45;;;;;;;38.92;26.13;;;;;;;4.14;74.63;103367.88;5068309;28;20399;-68
2022/01/24 08:05:11;;;;;;;40.13;28.38;;;;;;;4.14;74.27;103367.88;5068804;28;20476;-68
2022/01/24 08:07:38;;;;;;;42.17;28.58;;;;;;;4.16;74.16;103373.16;5075850;28;20031;-68
2022/01/24 08:10:05;;;;;;;38.10;27.60;;;;;;;4.16;73.94;103383.69;5089775;28;20059;-68
2022/01/24 08:12:34;;;;;;;40.95;28.40;;;;;;;4.09;73.53;103369.63;5067827;28;20161;-68
2022/01/24 08:15:00;;;;;;;40.85;29.38;;;;;;;4.16;74.26;103373.16;5068073;28;20020;-68
2022/01/24 08:17:26;;;;;;;41.25;30.65;;;;;;;4.17;73.73;103382.81;5067102;28;20395;-68
2022/01/24 08:19:51;;;;;;;44.38;30.75;;;;;;;4.17;73.90;103383.69;5068178;28;20054;-68
2022/01/24 08:22:19;;;;;;;41.28;30.55;;;;;;;4.17;73.51;103382.81;5069166;28;20040;-68
2022/01/24 08:24:45;;;;;;;42.10;29.23;;;;;;;4.12;73.45;103374.91;5072706;28;20040;-68
2022/01/24 08:27:12;;;;;;;46.53;31.25;;;;;;;4.14;73.37;103373.13;5072686;28;20025;-68
2022/01/24 08:29:38;;;;;;;38.80;28.30;;;;;;;4.18;73.19;103382.81;5072144;28;20033;-68
2022/01/24 08:32:03;;;;;;;43.00;29.80;;;;;;;4.17;73.77;103373.13;5087309;28;20048;-68
2022/01/24 08:34:31;;;;;;;39.15;29.25;;;;;;;4.22;72.75;103383.72;5074759;28;20036;-68
2022/01/24 08:36:57;;;;;;;42.05;30.35;;;;;;;4.28;73.53;103384.59;5077696;28;20032;-68
2022/01/24 08:39:22;;;;;;;41.03;30.30;;;;;;;4.25;73.02;103389.88;5073772;28;20042;-68
2022/01/24 08:44:34;;;;;;;40.20;29.65;;;;;;;4.23;72.43;103381.06;5070149;28;20114;-68
2022/01/24 08:47:00;;;;;;;;;;;;;;;4.38;73.47;103388.16;5073466;28;20070;-68
2022/01/24 08:49:25;;;;;;;41.88;29.45;;;;;;;4.34;72.21;103391.66;5071091;28;19951;-68
2022/01/24 08:51:51;;;;;;;43.60;30.83;;;;;;;4.32;72.74;103374.97;5071325;28;20462;-68
2022/01/24 08:54:16;;;;;;;43.08;29.20;;;;;;;4.34;72.82;103381.13;5070899;28;20035;-68
2022/01/24 08:56:41;;;;;;;43.28;29.83;;;;;;;4.28;72.49;103392.50;5074222;28;20044;-68
2022/01/24 08:59:09;;;;;;;40.45;28.92;;;;;;;4.27;72.65;103392.53;5071867;28;20036;-67
2022/01/24 09:01:35;;;;;;;49.42;30.90;;;;;;;4.33;73.29;103396.06;5071163;28;20028;-68
2022/01/24 09:04:01;;;;;;;39.33;29.23;;;;;;;4.32;72.48;103385.50;5072078;28;20043;-68
2022/01/24 09:06:28;;;;;;;42.50;30.08;;;;;;;4.29;71.83;103391.66;5071710;28;20157;-68
2022/01/24 09:08:59;;;;;;;44.20;29.92;;;;;;;4.28;71.80;103391.63;5074841;28;20067;-69
2022/01/24 09:11:30;;;;;;;40.40;29.42;;;;;;;4.30;71.52;103398.69;5072356;28;20376;-68
2022/01/24 09:13:56;;;;;;;42.47;29.05;;;;;;;4.29;71.20;103396.03;5069430;28;20041;-68
2022/01/24 09:16:22;;;;;;;42.50;29.08;;;;;;;4.32;71.70;103390.75;5074374;28;20024;-68
2022/01/24 09:18:48;;;;;;;41.30;29.38;;;;;;;4.36;71.53;103400.47;5072283;28;20119;-68
2022/01/24 09:21:14;;;;;;;42.45;29.13;;;;;;;4.30;71.66;103398.69;5071492;28;20032;-68
2022/01/24 09:23:39;;;;;;;39.05;28.42;;;;;;;4.29;72.07;103394.28;5070736;28;20032;-68
2022/01/24 09:26:05;;;;;;;39.10;26.15;;;;;;;4.33;71.41;103397.81;5077855;28;20089;-68
2022/01/24 09:28:36;;;;;;;35.20;25.67;;;;;;;4.29;71.65;103404.81;5069490;28;20029;-68
2022/01/24 09:31:02;;;;;;;41.80;25.85;;;;;;;4.30;72.16;103397.81;5088853;28;20024;-68
2022/01/24 09:33:28;;;;;;;40.85;27.55;;;;;;;4.38;72.50;103395.19;5068122;28;20475;-68
2022/01/24 09:35:59;;;;;;;36.35;25.90;;;;;;;4.42;71.92;103387.31;5078409;28;20048;-68
2022/01/24 09:38:26;;;;;;;38.28;26.40;;;;;;;4.42;71.82;103391.69;5071007;28;20036;-68
2022/01/24 09:40:52;;;;;;;36.67;26.02;;;;;;;4.43;71.93;103398.72;5075448;28;20103;-69
2022/01/24 09:43:18;;;;;;;37.08;24.67;;;;;;;4.35;71.51;103390.78;5069888;28;20136;-67
2022/01/24 09:45:43;;;;;;;38.97;26.85;;;;;;;4.35;71.00;103395.16;5071848;28;20037;-67
2022/01/24 09:48:11;;;;;;;38.25;25.70;;;;;;;4.32;71.48;103388.13;5069612;28;20472;-68
2022/01/24 09:50:36;;;;;;;37.85;26.52;;;;;;;4.33;71.75;103390.78;5072508;28;20495;-68
2022/01/24 09:53:02;;;;;;;37.35;26.33;;;;;;;4.35;72.07;103389.91;5073834;28;20127;-68
2022/01/24 09:55:28;;;;;;;38.47;25.63;;;;;;;4.30;70.79;103389.91;5070674;28;20460;-68
2022/01/24 09:57:56;;;;;;;37.08;26.05;;;;;;;4.32;71.09;103393.41;5069431;28;20033;-68
2022/01/24 10:00:25;;;;;;;36.35;25.40;;;;;;;4.28;71.40;103387.25;5069720;28;20498;-68
2022/01/24 10:02:52;;;;;;;35.13;24.52;;;;;;;4.36;71.35;103386.41;5071756;28;20033;-68
2022/01/24 10:05:24;;;;;;;33.47;23.20;;;;;;;4.35;71.10;103372.34;5068376;28;20032;-68
2022/01/24 10:07:56;;;;;;;37.67;25.73;;;;;;;4.48;70.73;103389.09;5070372;28;20503;-68
2022/01/24 10:10:30;;;;;;;37.97;26.15;;;;;;;4.45;70.82;103391.72;5070284;28;20031;-68
2022/01/24 10:18:09;;;;;;;34.70;24.25;;;;;;;4.47;70.89;103384.66;5068815;28;20518;-68
2022/01/24 10:20:36;;;;;;;38.33;25.70;;;;;;;4.51;71.21;103389.97;5069980;28;20391;-68
2022/01/24 10:23:06;;;;;;;37.58;26.00;;;;;;;4.54;70.72;103391.75;5069997;28;20031;-68
2022/01/24 10:25:44;;;;;;;37.95;25.70;;;;;;;4.57;71.02;103394.38;5070160;28;20446;-68
2022/01/24 10:28:12;;;;;;;36.70;25.25;;;;;;;4.61;71.15;103388.22;5072077;28;20028;-68
2022/01/24 10:30:37;;;;;;;34.47;24.40;;;;;;;4.64;70.00;103385.59;5050953;28;20029;-68
2022/01/24 10:33:04;;;;;;;33.90;22.98;;;;;;;4.61;69.93;103390.88;5070910;28;20035;-68
2022/01/24 10:35:46;;;;;;;35.60;24.13;;;;;;;4.55;70.13;103388.22;5070763;28;20021;-68
2022/01/24 10:38:52;;;;;;;34.67;23.55;;;;;;;4.59;70.95;103390.00;5055643;28;20162;-68
2022/01/24 10:41:21;;;;;;;32.65;23.95;;;;;;;4.51;70.15;103381.19;5070896;28;20364;-68
2022/01/24 10:43:48;;;;;;;38.20;24.55;;;;;;;4.69;70.32;103378.59;5071400;28;20032;-68
2022/01/24 10:46:14;;;;;;;35.75;24.17;;;;;;;4.75;69.72;103375.97;5070974;28;20033;-68
2022/01/24 10:48:43;;;;;;;37.47;25.15;;;;;;;4.82;70.05;103376.84;5070696;28;20023;-68
2022/01/24 10:51:18;;;;;;;38.47;24.77;;;;;;;4.80;69.16;103373.34;5070236;28;20075;-68
2022/01/24 10:53:45;;;;;;;36.67;24.92;;;;;;;4.83;68.92;103369.84;5070785;28;20475;-68
2022/01/24 10:56:44;;;;;;;31.83;23.20;;;;;;;4.88;69.62;103368.06;5071403;28;20021;-68
2022/01/24 10:59:16;;;;;;;30.45;22.67;;;;;;;4.74;68.89;103363.69;5060880;28;20043;-68
2022/01/24 11:01:49;;;;;;;36.15;25.05;;;;;;;4.81;68.52;103374.22;5070581;28;20044;-68
2022/01/24 11:04:17;;;;;;;36.05;24.40;;;;;;;4.83;69.33;103369.84;5070048;28;20032;-68
2022/01/24 11:06:51;;;;;;;34.75;23.95;;;;;;;4.85;68.39;103362.78;5068970;28;20173;-68
2022/01/24 11:09:28;;;;;;;35.63;24.35;;;;;;;4.88;69.85;103363.72;5069268;28;20052;-68
2022/01/24 11:12:01;;;;;;;33.65;23.85;;;;;;;4.88;68.49;103355.81;5068596;28;20446;-68
2022/01/24 11:14:29;;;;;;;32.17;22.80;;;;;;;4.97;68.69;103362.81;5069197;28;20035;-68
2022/01/24 11:16:59;;;;;;;30.75;22.85;;;;;;;4.99;70.08;103355.78;5067349;28;20035;-68
2022/01/24 11:19:30;;;;;;;33.75;23.63;;;;;;;4.98;69.60;103362.81;5069734;28;20037;-68
2022/01/24 11:21:57;;;;;;;35.15;25.02;;;;;;;4.98;69.27;103360.19;5070140;28;20028;-68
2022/01/24 11:24:35;;;;;;;33.25;23.83;;;;;;;4.97;69.77;103357.53;5069172;28;20052;-68
2022/01/24 11:27:01;;;;;;;34.33;24.65;;;;;;;4.97;69.70;103353.16;5070390;28;20455;-68
2022/01/24 11:29:27;;;;;;;36.88;24.20;;;;;;;5.04;69.19;103355.81;5069509;28;20119;-68
2022/01/24 11:32:03;;;;;;;35.78;24.55;;;;;;;5.06;69.49;103352.28;5069421;28;20033;-68
2022/01/24 11:34:35;;;;;;;37.60;26.48;;;;;;;5.08;70.10;103349.63;5068514;28;20021;-68
2022/01/24 11:37:01;;;;;;;36.05;26.67;;;;;;;5.06;68.85;103335.56;5077780;28;20054;-68
2022/01/24 11:39:26;;;;;;;39.15;27.33;;;;;;;5.04;69.58;103348.75;5077512;28;20077;-67
2022/01/24 11:41:53;;;;;;;41.85;27.90;;;;;;;4.96;68.82;103347.88;5070838;28;20028;-67
2022/01/24 11:44:20;;;;;;;37.88;26.85;;;;;;;4.93;68.12;103358.41;5067867;28;20028;-67
2022/01/24 11:46:55;;;;;;;37.15;26.27;;;;;;;4.86;68.00;103367.22;5070246;28;20138;-67
2022/01/24 11:49:26;;;;;;;35.90;26.00;;;;;;;4.86;68.37;103360.19;5069950;28;20025;-68
2022/01/24 11:52:14;;;;;;;36.58;26.70;;;;;;;4.91;69.59;103360.16;5070285;28;20039;-68
2022/01/24 11:54:56;;;;;;;38.92;27.52;;;;;;;4.89;69.20;103349.63;5066927;28;20039;-67
2022/01/24 11:57:56;;;;;;;36.80;28.30;;;;;;;4.93;69.10;103343.47;5073161;28;20036;-68
2022/01/24 12:00:31;;;;;;;38.40;26.73;;;;;;;4.89;68.96;103354.03;5073432;28;20086;-67
2022/01/24 12:03:04;;;;;;;39.05;28.15;;;;;;;4.92;68.70;103335.56;5072312;28;20451;-68
2022/01/24 12:05:43;;;;;;;40.90;28.45;;;;;;;4.95;68.65;103327.66;5094509;28;20089;-67
2022/01/24 12:08:12;;;;;;;38.17;27.13;;;;;;;4.96;68.91;103322.38;5083743;28;20031;-68
2022/01/24 12:10:45;;;;;;;37.28;27.10;;;;;;;4.99;68.60;103324.13;5073567;28;20045;-68
2022/01/24 12:13:21;;;;;;;39.88;29.73;;;;;;;4.99;68.64;103321.50;5073368;28;20025;-68
2022/01/24 12:15:49;;;;;;;39.65;29.17;;;;;;;5.05;69.33;103324.13;5094501;28;20028;-68
2022/01/24 12:18:23;;;;;;;40.17;28.90;;;;;;;5.07;68.84;103322.38;5094479;28;20035;-68
2022/01/24 12:20:51;;;;;;;38.13;27.98;;;;;;;5.10;68.61;103324.16;5081022;28;20055;-68
2022/01/24 12:23:16;;;;;;;35.40;25.92;;;;;;;5.14;68.50;103320.63;5071397;28;20021;-68
2022/01/24 12:25:48;;;;;;;37.78;27.50;;;;;;;5.16;68.15;103321.50;5073669;28;20532;-68
2022/01/24 12:28:18;;;;;;;37.50;27.05;;;;;;;5.13;68.84;103322.38;5073113;28;20028;-67
2022/01/24 12:31:06;;;;;;;35.53;25.25;;;;;;;5.18;69.97;103315.34;5073712;28;20458;-67
2022/01/24 12:33:40;;;;;;;37.28;25.27;;;;;;;5.21;68.31;103315.34;5073246;28;20103;-67
2022/01/24 12:36:14;;;;;;;37.35;26.17;;;;;;;5.17;67.89;103313.56;5072189;28;20024;-68
2022/01/24 12:38:40;;;;;;;36.20;25.30;;;;;;;5.24;69.01;103315.34;5072978;28;20077;-68
2022/01/24 12:41:23;;;;;;;35.90;25.02;;;;;;;5.30;68.35;103311.81;5073071;28;20111;-68
2022/01/24 12:46:30;;;;;;;35.83;25.85;;;;;;;5.35;68.26;103311.81;5073253;28;20028;-68
2022/01/24 12:48:59;;;;;;;37.70;26.10;;;;;;;5.34;67.39;103300.38;5071225;28;20077;-67
2022/01/24 12:51:27;;;;;;;35.83;24.45;;;;;;;5.27;66.57;103305.69;5072771;28;20394;-68
2022/01/24 12:53:53;;;;;;;36.20;25.70;;;;;;;5.28;66.59;103299.50;5072912;28;20047;-68
2022/01/24 12:56:24;;;;;;;35.28;24.75;;;;;;;5.31;67.42;103304.78;5072224;28;20701;-67
2022/01/24 12:58:50;;;;;;;35.10;25.15;;;;;;;5.27;67.57;103303.03;5072874;28;20024;-67
2022/01/24 13:01:26;;;;;;;34.53;24.90;;;;;;;5.41;67.29;103302.13;5072947;28;20086;-69
2022/01/24 13:04:05;;;;;;;37.92;26.13;;;;;;;5.38;66.90;103301.25;5073971;28;20021;-67
2022/01/24 13:06:38;;;;;;;36.83;25.75;;;;;;;5.46;67.08;103288.91;5071534;28;20017;-68